sensor_id;sensor_type;location;lat;lon;timestamp;P1;durP1;ratioP1;P2;durP2;ratioP2
65189;SDS011;51777;53.570;9.984;2023-06-22T00:01:49;6.63;;;3.40;;
65189;SDS011;51777;53.570;9.984;2023-06-22T00:04:14;4.55;;;3.35;;
65189;SDS011;51777;53.570;9.984;2023-06-22T00:06:40;4.85;;;3.15;;
65189;SDS011;51777;53.570;9.984;2023-06-22T00:09:05;4.80;;;3.38;;
65189;SDS011;51777;53.570;9.984;2023-06-22T00:11:32;6.40;;;3.50;;
65189;SDS011;51777;53.570;9.984;2023-06-22T00:13:58;4.88;;;3.17;;
65189;SDS011;51777;53.570;9.984;2023-06-22T00:16:24;4.97;;;3.42;;
65189;SDS011;51777;53.570;9.984;2023-06-22T00:18:50;4.30;;;3.22;;
65189;SDS011;51777;53.570;9.984;2023-06-22T00:21:15;4.32;;;2.92;;
65189;SDS011;51777;53.570;9.984;2023-06-22T00:23:40;4.90;;;3.58;;
65189;SDS011;51777;53.570;9.984;2023-06-22T00:26:06;4.35;;;3.13;;
65189;SDS011;51777;53.570;9.984;2023-06-22T00:28:32;5.65;;;3.50;;
65189;SDS011;51777;53.570;9.984;2023-06-22T00:30:59;5.32;;;3.67;;
65189;SDS011;51777;53.570;9.984;2023-06-22T00:33:25;6.68;;;3.60;;
65189;SDS011;51777;53.570;9.984;2023-06-22T00:35:51;4.65;;;3.35;;
65189;SDS011;51777;53.570;9.984;2023-06-22T00:38:17;5.03;;;3.25;;
65189;SDS011;51777;53.570;9.984;2023-06-22T00:40:43;5.43;;;3.33;;
65189;SDS011;51777;53.570;9.984;2023-06-22T00:43:08;4.93;;;3.58;;
65189;SDS011;51777;53.570;9.984;2023-06-22T00:45:34;5.60;;;3.58;;
65189;SDS011;51777;53.570;9.984;2023-06-22T00:47:59;5.88;;;3.45;;
65189;SDS011;51777;53.570;9.984;2023-06-22T00:50:26;5.93;;;3.88;;
65189;SDS011;51777;53.570;9.984;2023-06-22T00:52:56;5.05;;;3.78;;
65189;SDS011;51777;53.570;9.984;2023-06-22T00:55:23;5.28;;;3.45;;
65189;SDS011;51777;53.570;9.984;2023-06-22T00:57:50;5.68;;;3.42;;
65189;SDS011;51777;53.570;9.984;2023-06-22T01:00:20;5.53;;;3.80;;
65189;SDS011;51777;53.570;9.984;2023-06-22T01:02:49;10.23;;;3.50;;
65189;SDS011;51777;53.570;9.984;2023-06-22T01:05:18;4.72;;;3.58;;
65189;SDS011;51777;53.570;9.984;2023-06-22T01:13:45;7.22;;;3.88;;
65189;SDS011;51777;53.570;9.984;2023-06-22T01:16:26;4.97;;;3.88;;
65189;SDS011;51777;53.570;9.984;2023-06-22T01:18:55;7.40;;;5.30;;
65189;SDS011;51777;53.570;9.984;2023-06-22T01:21:22;4.20;;;3.50;;
65189;SDS011;51777;53.570;9.984;2023-06-22T01:24:07;5.40;;;3.63;;
65189;SDS011;51777;53.570;9.984;2023-06-22T01:29:38;7.72;;;5.32;;
65189;SDS011;51777;53.570;9.984;2023-06-22T01:32:05;8.15;;;5.35;;
65189;SDS011;51777;53.570;9.984;2023-06-22T01:34:32;5.70;;;3.80;;
65189;SDS011;51777;53.570;9.984;2023-06-22T01:36:58;5.72;;;3.90;;
65189;SDS011;51777;53.570;9.984;2023-06-22T01:39:27;5.88;;;4.15;;
65189;SDS011;51777;53.570;9.984;2023-06-22T01:41:52;6.18;;;4.00;;
65189;SDS011;51777;53.570;9.984;2023-06-22T01:44:19;5.28;;;3.90;;
65189;SDS011;51777;53.570;9.984;2023-06-22T01:46:45;6.40;;;4.00;;
65189;SDS011;51777;53.570;9.984;2023-06-22T01:49:11;7.15;;;3.90;;
65189;SDS011;51777;53.570;9.984;2023-06-22T01:51:37;5.90;;;3.97;;
65189;SDS011;51777;53.570;9.984;2023-06-22T01:54:03;6.78;;;4.18;;
65189;SDS011;51777;53.570;9.984;2023-06-22T01:56:28;7.80;;;4.20;;
65189;SDS011;51777;53.570;9.984;2023-06-22T01:58:57;6.75;;;4.45;;
65189;SDS011;51777;53.570;9.984;2023-06-22T02:01:32;6.18;;;4.30;;
65189;SDS011;51777;53.570;9.984;2023-06-22T02:04:06;6.55;;;4.50;;
65189;SDS011;51777;53.570;9.984;2023-06-22T02:06:35;6.22;;;4.30;;
65189;SDS011;51777;53.570;9.984;2023-06-22T02:09:06;7.03;;;4.90;;
65189;SDS011;51777;53.570;9.984;2023-06-22T02:11:34;8.55;;;4.30;;
65189;SDS011;51777;53.570;9.984;2023-06-22T02:14:01;9.00;;;4.90;;
65189;SDS011;51777;53.570;9.984;2023-06-22T02:16:27;5.63;;;4.50;;
65189;SDS011;51777;53.570;9.984;2023-06-22T02:18:55;8.75;;;4.53;;
65189;SDS011;51777;53.570;9.984;2023-06-22T02:21:23;8.60;;;4.65;;
65189;SDS011;51777;53.570;9.984;2023-06-22T02:23:48;6.80;;;4.28;;
65189;SDS011;51777;53.570;9.984;2023-06-22T02:26:15;5.55;;;4.13;;
65189;SDS011;51777;53.570;9.984;2023-06-22T02:28:42;6.20;;;4.40;;
65189;SDS011;51777;53.570;9.984;2023-06-22T02:31:07;11.35;;;4.78;;
65189;SDS011;51777;53.570;9.984;2023-06-22T02:33:33;7.78;;;4.85;;
65189;SDS011;51777;53.570;9.984;2023-06-22T02:35:58;7.28;;;4.82;;
65189;SDS011;51777;53.570;9.984;2023-06-22T02:38:23;7.28;;;4.85;;
65189;SDS011;51777;53.570;9.984;2023-06-22T02:40:49;9.73;;;4.43;;
65189;SDS011;51777;53.570;9.984;2023-06-22T02:43:15;7.88;;;5.28;;
65189;SDS011;51777;53.570;9.984;2023-06-22T02:45:40;6.43;;;4.72;;
65189;SDS011;51777;53.570;9.984;2023-06-22T02:48:05;7.88;;;5.00;;
65189;SDS011;51777;53.570;9.984;2023-06-22T02:50:31;8.35;;;4.78;;
65189;SDS011;51777;53.570;9.984;2023-06-22T02:52:56;6.45;;;4.78;;
65189;SDS011;51777;53.570;9.984;2023-06-22T02:55:23;7.97;;;5.25;;
65189;SDS011;51777;53.570;9.984;2023-06-22T02:57:48;13.15;;;5.78;;
65189;SDS011;51777;53.570;9.984;2023-06-22T03:00:17;8.32;;;5.13;;
65189;SDS011;51777;53.570;9.984;2023-06-22T03:02:44;6.45;;;5.40;;
65189;SDS011;51777;53.570;9.984;2023-06-22T03:05:11;6.47;;;5.30;;
65189;SDS011;51777;53.570;9.984;2023-06-22T03:07:41;7.82;;;5.07;;
65189;SDS011;51777;53.570;9.984;2023-06-22T03:10:10;8.80;;;5.20;;
65189;SDS011;51777;53.570;9.984;2023-06-22T03:12:37;8.77;;;5.07;;
65189;SDS011;51777;53.570;9.984;2023-06-22T03:15:06;11.82;;;5.18;;
65189;SDS011;51777;53.570;9.984;2023-06-22T03:17:35;10.52;;;5.07;;
65189;SDS011;51777;53.570;9.984;2023-06-22T03:20:02;7.82;;;6.10;;
65189;SDS011;51777;53.570;9.984;2023-06-22T03:22:38;11.27;;;6.57;;
65189;SDS011;51777;53.570;9.984;2023-06-22T03:25:05;10.90;;;5.80;;
65189;SDS011;51777;53.570;9.984;2023-06-22T03:27:38;9.90;;;5.80;;
65189;SDS011;51777;53.570;9.984;2023-06-22T03:30:04;10.13;;;5.85;;
65189;SDS011;51777;53.570;9.984;2023-06-22T03:32:30;9.02;;;5.47;;
65189;SDS011;51777;53.570;9.984;2023-06-22T03:34:56;7.93;;;5.72;;
65189;SDS011;51777;53.570;9.984;2023-06-22T03:37:23;8.30;;;5.43;;
65189;SDS011;51777;53.570;9.984;2023-06-22T03:39:52;8.80;;;5.43;;
65189;SDS011;51777;53.570;9.984;2023-06-22T03:42:18;7.95;;;5.15;;
65189;SDS011;51777;53.570;9.984;2023-06-22T03:44:43;7.85;;;5.65;;
65189;SDS011;51777;53.570;9.984;2023-06-22T03:47:09;6.88;;;5.07;;
65189;SDS011;51777;53.570;9.984;2023-06-22T03:49:34;11.05;;;5.75;;
65189;SDS011;51777;53.570;9.984;2023-06-22T03:52:00;8.38;;;5.70;;
65189;SDS011;51777;53.570;9.984;2023-06-22T03:54:27;6.32;;;4.70;;
65189;SDS011;51777;53.570;9.984;2023-06-22T03:56:54;9.70;;;5.43;;
65189;SDS011;51777;53.570;9.984;2023-06-22T03:59:19;8.50;;;4.75;;
65189;SDS011;51777;53.570;9.984;2023-06-22T04:01:45;8.25;;;5.55;;
65189;SDS011;51777;53.570;9.984;2023-06-22T04:04:11;9.35;;;4.70;;
65189;SDS011;51777;53.570;9.984;2023-06-22T04:06:37;10.65;;;5.57;;
65189;SDS011;51777;53.570;9.984;2023-06-22T04:09:03;9.73;;;5.35;;
65189;SDS011;51777;53.570;9.984;2023-06-22T04:11:28;8.43;;;5.22;;
65189;SDS011;51777;53.570;9.984;2023-06-22T04:13:53;6.00;;;4.47;;
65189;SDS011;51777;53.570;9.984;2023-06-22T04:16:19;10.55;;;4.90;;
65189;SDS011;51777;53.570;9.984;2023-06-22T04:18:44;9.60;;;4.47;;
65189;SDS011;51777;53.570;9.984;2023-06-22T04:21:10;8.82;;;4.85;;
65189;SDS011;51777;53.570;9.984;2023-06-22T04:23:35;7.65;;;4.65;;
65189;SDS011;51777;53.570;9.984;2023-06-22T04:26:01;9.45;;;4.78;;
65189;SDS011;51777;53.570;9.984;2023-06-22T04:28:26;7.20;;;4.88;;
65189;SDS011;51777;53.570;9.984;2023-06-22T04:30:51;7.95;;;5.38;;
65189;SDS011;51777;53.570;9.984;2023-06-22T04:33:17;10.05;;;4.93;;
65189;SDS011;51777;53.570;9.984;2023-06-22T04:35:44;5.97;;;4.90;;
65189;SDS011;51777;53.570;9.984;2023-06-22T04:38:11;9.80;;;5.30;;
65189;SDS011;51777;53.570;9.984;2023-06-22T04:40:38;11.65;;;5.43;;
65189;SDS011;51777;53.570;9.984;2023-06-22T04:43:04;8.20;;;4.95;;
65189;SDS011;51777;53.570;9.984;2023-06-22T04:45:31;7.25;;;4.88;;
65189;SDS011;51777;53.570;9.984;2023-06-22T04:47:57;7.13;;;4.60;;
65189;SDS011;51777;53.570;9.984;2023-06-22T04:50:22;7.50;;;4.50;;
65189;SDS011;51777;53.570;9.984;2023-06-22T04:52:48;9.10;;;5.30;;
65189;SDS011;51777;53.570;9.984;2023-06-22T04:55:14;6.75;;;4.97;;
65189;SDS011;51777;53.570;9.984;2023-06-22T04:57:48;6.97;;;4.50;;
65189;SDS011;51777;53.570;9.984;2023-06-22T05:00:22;9.32;;;4.32;;
65189;SDS011;51777;53.570;9.984;2023-06-22T05:02:48;5.38;;;4.22;;
65189;SDS011;51777;53.570;9.984;2023-06-22T05:05:14;9.45;;;4.95;;
65189;SDS011;51777;53.570;9.984;2023-06-22T05:07:44;9.10;;;5.10;;
65189;SDS011;51777;53.570;9.984;2023-06-22T05:10:13;7.32;;;4.60;;
65189;SDS011;51777;53.570;9.984;2023-06-22T05:12:39;7.78;;;4.72;;
65189;SDS011;51777;53.570;9.984;2023-06-22T05:15:06;6.80;;;4.45;;
65189;SDS011;51777;53.570;9.984;2023-06-22T05:17:32;9.18;;;4.72;;
65189;SDS011;51777;53.570;9.984;2023-06-22T05:19:57;7.70;;;4.28;;
65189;SDS011;51777;53.570;9.984;2023-06-22T05:22:23;7.65;;;4.40;;
65189;SDS011;51777;53.570;9.984;2023-06-22T05:24:48;6.15;;;4.80;;
65189;SDS011;51777;53.570;9.984;2023-06-22T05:27:14;7.55;;;4.80;;
65189;SDS011;51777;53.570;9.984;2023-06-22T05:29:39;8.32;;;4.75;;
65189;SDS011;51777;53.570;9.984;2023-06-22T05:32:05;6.45;;;4.07;;
65189;SDS011;51777;53.570;9.984;2023-06-22T05:34:31;8.48;;;3.65;;
65189;SDS011;51777;53.570;9.984;2023-06-22T05:36:57;6.05;;;3.42;;
65189;SDS011;51777;53.570;9.984;2023-06-22T05:39:24;6.25;;;3.25;;
65189;SDS011;51777;53.570;9.984;2023-06-22T05:41:50;7.53;;;3.70;;
65189;SDS011;51777;53.570;9.984;2023-06-22T05:44:16;4.88;;;2.80;;
65189;SDS011;51777;53.570;9.984;2023-06-22T05:46:42;10.45;;;2.78;;
65189;SDS011;51777;53.570;9.984;2023-06-22T05:49:12;7.28;;;2.80;;
65189;SDS011;51777;53.570;9.984;2023-06-22T05:51:38;6.55;;;3.05;;
65189;SDS011;51777;53.570;9.984;2023-06-22T05:54:03;8.40;;;3.00;;
65189;SDS011;51777;53.570;9.984;2023-06-22T05:56:29;7.28;;;3.10;;
65189;SDS011;51777;53.570;9.984;2023-06-22T05:58:54;10.65;;;3.60;;
65189;SDS011;51777;53.570;9.984;2023-06-22T06:01:20;8.07;;;3.50;;
65189;SDS011;51777;53.570;9.984;2023-06-22T06:03:45;6.63;;;2.90;;
65189;SDS011;51777;53.570;9.984;2023-06-22T06:06:11;6.22;;;3.00;;
65189;SDS011;51777;53.570;9.984;2023-06-22T06:08:37;6.13;;;3.20;;
65189;SDS011;51777;53.570;9.984;2023-06-22T06:11:03;4.88;;;2.90;;
65189;SDS011;51777;53.570;9.984;2023-06-22T06:13:29;6.65;;;2.80;;
65189;SDS011;51777;53.570;9.984;2023-06-22T06:15:54;5.05;;;3.10;;
65189;SDS011;51777;53.570;9.984;2023-06-22T06:18:22;9.68;;;2.78;;
65189;SDS011;51777;53.570;9.984;2023-06-22T06:20:51;5.63;;;2.85;;
65189;SDS011;51777;53.570;9.984;2023-06-22T06:23:23;5.30;;;2.83;;
65189;SDS011;51777;53.570;9.984;2023-06-22T06:25:49;6.07;;;2.85;;
65189;SDS011;51777;53.570;9.984;2023-06-22T06:28:14;4.78;;;2.72;;
65189;SDS011;51777;53.570;9.984;2023-06-22T06:30:39;4.47;;;2.80;;
65189;SDS011;51777;53.570;9.984;2023-06-22T06:33:06;3.25;;;2.60;;
65189;SDS011;51777;53.570;9.984;2023-06-22T06:35:33;5.40;;;2.80;;
65189;SDS011;51777;53.570;9.984;2023-06-22T06:37:59;4.28;;;2.92;;
65189;SDS011;51777;53.570;9.984;2023-06-22T06:40:24;5.60;;;3.00;;
65189;SDS011;51777;53.570;9.984;2023-06-22T06:42:50;8.93;;;2.85;;
65189;SDS011;51777;53.570;9.984;2023-06-22T06:45:16;4.93;;;2.70;;
65189;SDS011;51777;53.570;9.984;2023-06-22T06:47:43;7.72;;;3.08;;
65189;SDS011;51777;53.570;9.984;2023-06-22T06:50:10;3.75;;;2.60;;
65189;SDS011;51777;53.570;9.984;2023-06-22T06:52:36;7.88;;;3.10;;
65189;SDS011;51777;53.570;9.984;2023-06-22T06:55:02;10.05;;;3.00;;
65189;SDS011;51777;53.570;9.984;2023-06-22T06:57:29;5.65;;;2.42;;
65189;SDS011;51777;53.570;9.984;2023-06-22T06:59:58;4.05;;;2.78;;
65189;SDS011;51777;53.570;9.984;2023-06-22T07:02:23;8.32;;;3.10;;
65189;SDS011;51777;53.570;9.984;2023-06-22T07:04:49;7.32;;;3.20;;
65189;SDS011;51777;53.570;9.984;2023-06-22T07:07:16;11.02;;;2.97;;
65189;SDS011;51777;53.570;9.984;2023-06-22T07:09:41;7.68;;;2.72;;
65189;SDS011;51777;53.570;9.984;2023-06-22T07:12:07;5.75;;;3.10;;
65189;SDS011;51777;53.570;9.984;2023-06-22T07:14:32;4.15;;;2.60;;
65189;SDS011;51777;53.570;9.984;2023-06-22T07:16:58;6.55;;;3.10;;
65189;SDS011;51777;53.570;9.984;2023-06-22T07:19:24;7.45;;;2.50;;
65189;SDS011;51777;53.570;9.984;2023-06-22T07:21:50;8.80;;;2.83;;
65189;SDS011;51777;53.570;9.984;2023-06-22T07:24:16;6.43;;;2.78;;
65189;SDS011;51777;53.570;9.984;2023-06-22T07:26:41;6.20;;;2.63;;
65189;SDS011;51777;53.570;9.984;2023-06-22T07:29:10;5.50;;;2.53;;
65189;SDS011;51777;53.570;9.984;2023-06-22T07:31:36;4.72;;;2.40;;
65189;SDS011;51777;53.570;9.984;2023-06-22T07:34:02;6.75;;;2.67;;
65189;SDS011;51777;53.570;9.984;2023-06-22T07:36:29;5.43;;;2.15;;
65189;SDS011;51777;53.570;9.984;2023-06-22T07:38:55;4.20;;;2.33;;
65189;SDS011;51777;53.570;9.984;2023-06-22T07:41:20;6.38;;;2.40;;
65189;SDS011;51777;53.570;9.984;2023-06-22T07:43:46;6.47;;;2.58;;
65189;SDS011;51777;53.570;9.984;2023-06-22T07:46:11;4.35;;;2.72;;
65189;SDS011;51777;53.570;9.984;2023-06-22T07:48:37;7.18;;;2.33;;
65189;SDS011;51777;53.570;9.984;2023-06-22T07:51:03;3.58;;;2.13;;
65189;SDS011;51777;53.570;9.984;2023-06-22T07:53:28;3.33;;;2.30;;
65189;SDS011;51777;53.570;9.984;2023-06-22T07:55:54;5.78;;;2.67;;
65189;SDS011;51777;53.570;9.984;2023-06-22T07:58:19;3.58;;;2.20;;
65189;SDS011;51777;53.570;9.984;2023-06-22T08:00:45;6.25;;;2.17;;
65189;SDS011;51777;53.570;9.984;2023-06-22T08:03:12;2.83;;;2.28;;
65189;SDS011;51777;53.570;9.984;2023-06-22T08:05:37;3.20;;;2.35;;
65189;SDS011;51777;53.570;9.984;2023-06-22T08:08:02;5.55;;;2.38;;
65189;SDS011;51777;53.570;9.984;2023-06-22T08:10:29;3.20;;;2.20;;
65189;SDS011;51777;53.570;9.984;2023-06-22T08:12:54;3.28;;;2.30;;
65189;SDS011;51777;53.570;9.984;2023-06-22T08:15:20;13.80;;;2.72;;
65189;SDS011;51777;53.570;9.984;2023-06-22T08:17:47;5.25;;;2.70;;
65189;SDS011;51777;53.570;9.984;2023-06-22T08:20:12;4.32;;;2.20;;
65189;SDS011;51777;53.570;9.984;2023-06-22T08:22:38;6.70;;;2.20;;
65189;SDS011;51777;53.570;9.984;2023-06-22T08:25:05;2.05;;;1.85;;
65189;SDS011;51777;53.570;9.984;2023-06-22T08:27:31;4.95;;;2.17;;
65189;SDS011;51777;53.570;9.984;2023-06-22T08:29:57;7.15;;;2.20;;
65189;SDS011;51777;53.570;9.984;2023-06-22T08:32:24;3.80;;;2.35;;
65189;SDS011;51777;53.570;9.984;2023-06-22T08:34:51;10.57;;;2.42;;
65189;SDS011;51777;53.570;9.984;2023-06-22T08:37:18;4.93;;;1.90;;
65189;SDS011;51777;53.570;9.984;2023-06-22T08:39:43;7.85;;;2.10;;
65189;SDS011;51777;53.570;9.984;2023-06-22T08:42:09;7.05;;;1.98;;
65189;SDS011;51777;53.570;9.984;2023-06-22T08:44:34;4.50;;;2.10;;
65189;SDS011;51777;53.570;9.984;2023-06-22T08:46:59;7.82;;;2.00;;
65189;SDS011;51777;53.570;9.984;2023-06-22T08:49:25;7.35;;;2.17;;
65189;SDS011;51777;53.570;9.984;2023-06-22T08:51:50;5.53;;;1.80;;
65189;SDS011;51777;53.570;9.984;2023-06-22T08:54:18;4.43;;;1.75;;
65189;SDS011;51777;53.570;9.984;2023-06-22T08:56:43;46.03;;;3.00;;
65189;SDS011;51777;53.570;9.984;2023-06-22T08:59:09;38.20;;;3.78;;
65189;SDS011;51777;53.570;9.984;2023-06-22T09:01:34;25.77;;;2.70;;
65189;SDS011;51777;53.570;9.984;2023-06-22T09:04:00;15.50;;;2.40;;
65189;SDS011;51777;53.570;9.984;2023-06-22T09:06:25;11.15;;;2.70;;
65189;SDS011;51777;53.570;9.984;2023-06-22T09:08:51;3.28;;;1.80;;
65189;SDS011;51777;53.570;9.984;2023-06-22T09:11:16;5.20;;;1.70;;
65189;SDS011;51777;53.570;9.984;2023-06-22T09:13:42;14.70;;;2.10;;
65189;SDS011;51777;53.570;9.984;2023-06-22T09:16:07;7.95;;;1.90;;
65189;SDS011;51777;53.570;9.984;2023-06-22T09:18:39;12.95;;;2.40;;
65189;SDS011;51777;53.570;9.984;2023-06-22T09:21:04;9.60;;;2.28;;
65189;SDS011;51777;53.570;9.984;2023-06-22T09:23:29;5.25;;;2.10;;
65189;SDS011;51777;53.570;9.984;2023-06-22T09:25:55;5.00;;;1.80;;
65189;SDS011;51777;53.570;9.984;2023-06-22T09:28:20;9.50;;;1.98;;
65189;SDS011;51777;53.570;9.984;2023-06-22T09:30:46;5.93;;;2.08;;
65189;SDS011;51777;53.570;9.984;2023-06-22T09:33:14;4.32;;;1.80;;
65189;SDS011;51777;53.570;9.984;2023-06-22T09:35:39;6.50;;;1.90;;
65189;SDS011;51777;53.570;9.984;2023-06-22T09:38:05;4.40;;;1.98;;
65189;SDS011;51777;53.570;9.984;2023-06-22T09:40:31;6.70;;;2.00;;
65189;SDS011;51777;53.570;9.984;2023-06-22T09:43:00;10.60;;;2.30;;
65189;SDS011;51777;53.570;9.984;2023-06-22T09:45:25;10.10;;;2.40;;
65189;SDS011;51777;53.570;9.984;2023-06-22T09:47:51;3.00;;;2.10;;
65189;SDS011;51777;53.570;9.984;2023-06-22T09:50:16;9.27;;;2.20;;
65189;SDS011;51777;53.570;9.984;2023-06-22T09:52:42;4.47;;;1.90;;
65189;SDS011;51777;53.570;9.984;2023-06-22T09:55:09;18.05;;;3.00;;
65189;SDS011;51777;53.570;9.984;2023-06-22T09:57:35;9.25;;;2.53;;
65189;SDS011;51777;53.570;9.984;2023-06-22T10:00:00;10.57;;;2.28;;
65189;SDS011;51777;53.570;9.984;2023-06-22T10:02:26;10.02;;;2.10;;
65189;SDS011;51777;53.570;9.984;2023-06-22T10:04:51;6.03;;;1.98;;
65189;SDS011;51777;53.570;9.984;2023-06-22T10:07:16;5.30;;;2.00;;
65189;SDS011;51777;53.570;9.984;2023-06-22T10:09:42;5.30;;;1.83;;
65189;SDS011;51777;53.570;9.984;2023-06-22T10:12:07;7.53;;;1.90;;
65189;SDS011;51777;53.570;9.984;2023-06-22T10:14:33;11.90;;;2.45;;
65189;SDS011;51777;53.570;9.984;2023-06-22T10:16:58;2.83;;;1.80;;
65189;SDS011;51777;53.570;9.984;2023-06-22T10:19:24;6.18;;;1.90;;
65189;SDS011;51777;53.570;9.984;2023-06-22T10:21:49;5.72;;;1.90;;
65189;SDS011;51777;53.570;9.984;2023-06-22T10:24:15;7.63;;;1.70;;
65189;SDS011;51777;53.570;9.984;2023-06-22T10:26:40;2.53;;;1.90;;
65189;SDS011;51777;53.570;9.984;2023-06-22T10:29:05;6.53;;;2.50;;
65189;SDS011;51777;53.570;9.984;2023-06-22T10:31:31;18.35;;;2.58;;
65189;SDS011;51777;53.570;9.984;2023-06-22T10:33:56;9.50;;;2.10;;
65189;SDS011;51777;53.570;9.984;2023-06-22T10:36:22;3.22;;;1.75;;
65189;SDS011;51777;53.570;9.984;2023-06-22T10:38:48;3.08;;;1.80;;
65189;SDS011;51777;53.570;9.984;2023-06-22T10:41:14;5.38;;;1.77;;
65189;SDS011;51777;53.570;9.984;2023-06-22T10:43:39;3.08;;;1.70;;
65189;SDS011;51777;53.570;9.984;2023-06-22T10:46:06;3.03;;;1.60;;
65189;SDS011;51777;53.570;9.984;2023-06-22T10:48:32;4.68;;;1.80;;
65189;SDS011;51777;53.570;9.984;2023-06-22T10:50:58;16.92;;;2.53;;
65189;SDS011;51777;53.570;9.984;2023-06-22T10:53:23;20.58;;;2.97;;
65189;SDS011;51777;53.570;9.984;2023-06-22T10:55:49;10.82;;;2.03;;
65189;SDS011;51777;53.570;9.984;2023-06-22T10:58:15;7.40;;;2.00;;
65189;SDS011;51777;53.570;9.984;2023-06-22T11:00:42;13.48;;;2.95;;
65189;SDS011;51777;53.570;9.984;2023-06-22T11:03:08;6.80;;;2.20;;
65189;SDS011;51777;53.570;9.984;2023-06-22T11:05:33;10.77;;;2.25;;
65189;SDS011;51777;53.570;9.984;2023-06-22T11:07:58;5.00;;;1.83;;
65189;SDS011;51777;53.570;9.984;2023-06-22T11:10:24;5.53;;;1.92;;
65189;SDS011;51777;53.570;9.984;2023-06-22T11:12:49;5.18;;;2.17;;
65189;SDS011;51777;53.570;9.984;2023-06-22T11:15:15;4.57;;;1.90;;
65189;SDS011;51777;53.570;9.984;2023-06-22T11:17:40;5.88;;;2.10;;
65189;SDS011;51777;53.570;9.984;2023-06-22T11:20:06;3.78;;;1.73;;
65189;SDS011;51777;53.570;9.984;2023-06-22T11:22:39;3.40;;;1.80;;
65189;SDS011;51777;53.570;9.984;2023-06-22T11:25:05;4.55;;;1.90;;
65189;SDS011;51777;53.570;9.984;2023-06-22T11:27:31;2.50;;;1.90;;
65189;SDS011;51777;53.570;9.984;2023-06-22T11:29:57;2.47;;;2.00;;
65189;SDS011;51777;53.570;9.984;2023-06-22T11:32:22;11.50;;;2.55;;
65189;SDS011;51777;53.570;9.984;2023-06-22T11:34:48;4.35;;;2.20;;
65189;SDS011;51777;53.570;9.984;2023-06-22T11:37:13;6.55;;;2.50;;
65189;SDS011;51777;53.570;9.984;2023-06-22T11:39:39;9.65;;;2.45;;
65189;SDS011;51777;53.570;9.984;2023-06-22T11:42:05;4.80;;;2.30;;
65189;SDS011;51777;53.570;9.984;2023-06-22T11:44:30;4.55;;;2.20;;
65189;SDS011;51777;53.570;9.984;2023-06-22T11:46:56;5.65;;;2.08;;
65189;SDS011;51777;53.570;9.984;2023-06-22T11:49:21;6.28;;;2.28;;
65189;SDS011;51777;53.570;9.984;2023-06-22T11:51:46;5.55;;;2.25;;
65189;SDS011;51777;53.570;9.984;2023-06-22T11:54:12;5.80;;;2.20;;
65189;SDS011;51777;53.570;9.984;2023-06-22T11:56:37;7.10;;;2.60;;
65189;SDS011;51777;53.570;9.984;2023-06-22T11:59:03;5.72;;;2.50;;
65189;SDS011;51777;53.570;9.984;2023-06-22T12:01:28;7.97;;;2.72;;
65189;SDS011;51777;53.570;9.984;2023-06-22T12:03:54;6.68;;;2.70;;
65189;SDS011;51777;53.570;9.984;2023-06-22T12:06:19;10.63;;;2.80;;
65189;SDS011;51777;53.570;9.984;2023-06-22T12:08:46;6.35;;;2.50;;
65189;SDS011;51777;53.570;9.984;2023-06-22T12:11:12;5.38;;;2.72;;
65189;SDS011;51777;53.570;9.984;2023-06-22T12:13:38;5.85;;;2.50;;
65189;SDS011;51777;53.570;9.984;2023-06-22T12:16:03;5.03;;;2.53;;
65189;SDS011;51777;53.570;9.984;2023-06-22T12:18:29;5.22;;;2.63;;
65189;SDS011;51777;53.570;9.984;2023-06-22T12:20:54;13.23;;;2.70;;
65189;SDS011;51777;53.570;9.984;2023-06-22T12:23:19;3.63;;;2.53;;
65189;SDS011;51777;53.570;9.984;2023-06-22T12:25:45;3.97;;;2.70;;
65189;SDS011;51777;53.570;9.984;2023-06-22T12:28:10;3.67;;;2.70;;
65189;SDS011;51777;53.570;9.984;2023-06-22T12:30:36;5.95;;;2.60;;
65189;SDS011;51777;53.570;9.984;2023-06-22T12:33:02;4.60;;;2.78;;
65189;SDS011;51777;53.570;9.984;2023-06-22T12:35:27;6.10;;;3.03;;
65189;SDS011;51777;53.570;9.984;2023-06-22T12:37:52;3.35;;;2.92;;
65189;SDS011;51777;53.570;9.984;2023-06-22T12:40:18;5.30;;;3.08;;
65189;SDS011;51777;53.570;9.984;2023-06-22T12:42:44;6.65;;;2.95;;
65189;SDS011;51777;53.570;9.984;2023-06-22T12:45:10;8.18;;;2.83;;
65189;SDS011;51777;53.570;9.984;2023-06-22T12:47:36;8.32;;;2.88;;
65189;SDS011;51777;53.570;9.984;2023-06-22T12:50:01;5.10;;;3.00;;
65189;SDS011;51777;53.570;9.984;2023-06-22T12:52:27;3.88;;;2.90;;
65189;SDS011;51777;53.570;9.984;2023-06-22T12:54:52;3.65;;;2.92;;
65189;SDS011;51777;53.570;9.984;2023-06-22T12:57:19;5.03;;;3.10;;
65189;SDS011;51777;53.570;9.984;2023-06-22T12:59:45;4.85;;;2.90;;
65189;SDS011;51777;53.570;9.984;2023-06-22T13:02:10;5.47;;;3.75;;
65189;SDS011;51777;53.570;9.984;2023-06-22T13:04:36;9.52;;;3.30;;
65189;SDS011;51777;53.570;9.984;2023-06-22T13:07:01;6.38;;;2.85;;
65189;SDS011;51777;53.570;9.984;2023-06-22T13:09:27;8.88;;;3.13;;
65189;SDS011;51777;53.570;9.984;2023-06-22T13:11:52;5.45;;;2.67;;
65189;SDS011;51777;53.570;9.984;2023-06-22T13:14:18;6.75;;;2.75;;
65189;SDS011;51777;53.570;9.984;2023-06-22T13:16:43;4.68;;;2.65;;
65189;SDS011;51777;53.570;9.984;2023-06-22T13:19:09;6.68;;;2.85;;
65189;SDS011;51777;53.570;9.984;2023-06-22T13:21:34;8.50;;;2.60;;
65189;SDS011;51777;53.570;9.984;2023-06-22T13:23:59;3.10;;;2.35;;
65189;SDS011;51777;53.570;9.984;2023-06-22T13:26:26;4.53;;;2.63;;
65189;SDS011;51777;53.570;9.984;2023-06-22T13:28:53;3.85;;;2.40;;
65189;SDS011;51777;53.570;9.984;2023-06-22T13:31:19;4.30;;;2.55;;
65189;SDS011;51777;53.570;9.984;2023-06-22T13:33:44;6.00;;;2.50;;
65189;SDS011;51777;53.570;9.984;2023-06-22T13:36:13;5.20;;;2.70;;
65189;SDS011;51777;53.570;9.984;2023-06-22T13:38:42;4.22;;;2.53;;
65189;SDS011;51777;53.570;9.984;2023-06-22T13:41:08;10.55;;;3.20;;
65189;SDS011;51777;53.570;9.984;2023-06-22T13:43:33;8.65;;;2.80;;
65189;SDS011;51777;53.570;9.984;2023-06-22T13:45:58;5.65;;;2.83;;
65189;SDS011;51777;53.570;9.984;2023-06-22T13:48:24;5.65;;;2.80;;
65189;SDS011;51777;53.570;9.984;2023-06-22T13:50:51;7.03;;;3.13;;
65189;SDS011;51777;53.570;9.984;2023-06-22T13:53:16;10.00;;;3.28;;
65189;SDS011;51777;53.570;9.984;2023-06-22T13:55:42;5.05;;;2.95;;
65189;SDS011;51777;53.570;9.984;2023-06-22T13:58:07;3.00;;;2.70;;
65189;SDS011;51777;53.570;9.984;2023-06-22T14:00:33;3.25;;;2.60;;
65189;SDS011;51777;53.570;9.984;2023-06-22T14:03:01;7.88;;;2.88;;
65189;SDS011;51777;53.570;9.984;2023-06-22T14:05:27;4.80;;;2.70;;
65189;SDS011;51777;53.570;9.984;2023-06-22T14:07:53;4.88;;;2.83;;
65189;SDS011;51777;53.570;9.984;2023-06-22T14:10:18;4.13;;;2.40;;
65189;SDS011;51777;53.570;9.984;2023-06-22T14:12:43;5.55;;;2.78;;
65189;SDS011;51777;53.570;9.984;2023-06-22T14:15:09;6.63;;;3.00;;
65189;SDS011;51777;53.570;9.984;2023-06-22T14:17:35;6.78;;;2.70;;
65189;SDS011;51777;53.570;9.984;2023-06-22T14:20:00;4.70;;;2.83;;
65189;SDS011;51777;53.570;9.984;2023-06-22T14:22:26;4.95;;;2.95;;
65189;SDS011;51777;53.570;9.984;2023-06-22T14:24:54;4.50;;;2.78;;
65189;SDS011;51777;53.570;9.984;2023-06-22T14:27:21;6.57;;;3.08;;
65189;SDS011;51777;53.570;9.984;2023-06-22T14:29:46;6.75;;;2.92;;
65189;SDS011;51777;53.570;9.984;2023-06-22T14:32:12;3.80;;;3.00;;
65189;SDS011;51777;53.570;9.984;2023-06-22T14:34:37;4.15;;;3.35;;
65189;SDS011;51777;53.570;9.984;2023-06-22T14:37:09;4.18;;;2.90;;
65189;SDS011;51777;53.570;9.984;2023-06-22T14:39:35;3.45;;;2.85;;
65189;SDS011;51777;53.570;9.984;2023-06-22T14:42:04;8.35;;;3.10;;
65189;SDS011;51777;53.570;9.984;2023-06-22T14:44:31;3.40;;;2.78;;
65189;SDS011;51777;53.570;9.984;2023-06-22T14:47:03;4.05;;;2.95;;
65189;SDS011;51777;53.570;9.984;2023-06-22T14:49:38;7.38;;;3.20;;